KBDU

Details ICAO KBDU (WBU)
Name BOULDER MUNI
Region United States
Timezone America/Denver (UTC-7.0)
Plans Departing 18
Arriving 24
Stats Elevation 5,288 ft / 1,612 m (AMSL)
Location 40.038749° -105.227366°
Runways 2
Magnetic Variation 8.366° E
Sunrise 2017-12-16 14:18:00 UTC / 2017-12-16 07:18:00 Local
Sunset 2017-12-16 23:38:07 UTC / 2017-12-16 16:38:07 Local
Advertisement - Login to hide

Runways

ID Width Length Bearing (true) Bearing (mag) Surface Threshold Offset Overrun Length
08L 25 ft / 8 m 4,121 ft / 1,256 m 92.83° 84.46° Dirt 200 ft / 61 m 0 ft / 0 m
08R 75 ft / 23 m 4,121 ft / 1,256 m 92.81° 84.44° Asphalt 200 ft / 61 m 0 ft / 0 m
26L 75 ft / 23 m 4,121 ft / 1,256 m 272.82° 264.45° Asphalt 200 ft / 61 m 0 ft / 0 m
26R 25 ft / 8 m 4,121 ft / 1,256 m 272.84° 264.47° Dirt 0 ft / 0 m 0 ft / 0 m

Map

Weather


0- 5 10 15 20 25 30 35+ Temperature / ° C

Clouds and Precipitation
Forecast for 2017-12-17 00:00 UTC. Updated a few seconds ago

Ground ~20,000 ft ~40,000 ft Winds

METAR

KBDU 162112Z AUTO 00000KT 10SM CLR 08/M12 A2979 RMK AO2

TAF

Not found

Frequencies

Recorded 118.82 MHz AWOS 3
Unicom 122.70 MHz CTAF/UNICOM
Warning: Do not use this data for real-world aviation or navigation. No guarantee of current accuracy is given.